sensor_id;sensor_type;location;lat;lon;timestamp;pressure;altitude;pressure_sealevel;temperature;humidity
67740;BME280;54536;50.090;14.420;2023-04-10T00:01:38;100348.38;;;11.39;63.45
67740;BME280;54536;50.090;14.420;2023-04-10T00:04:04;100348.47;;;11.27;64.13
67740;BME280;54536;50.090;14.420;2023-04-10T00:06:34;100343.94;;;11.40;63.17
67740;BME280;54536;50.090;14.420;2023-04-10T00:09:00;100342.75;;;11.44;63.97
67740;BME280;54536;50.090;14.420;2023-04-10T00:11:26;100339.16;;;11.56;63.29
67740;BME280;54536;50.090;14.420;2023-04-10T00:13:52;100345.16;;;11.58;63.26
67740;BME280;54536;50.090;14.420;2023-04-10T00:16:19;100338.19;;;11.57;63.45
67740;BME280;54536;50.090;14.420;2023-04-10T00:18:46;100338.56;;;11.53;63.83
67740;BME280;54536;50.090;14.420;2023-04-10T00:21:11;100334.84;;;11.44;63.04
67740;BME280;54536;50.090;14.420;2023-04-10T00:23:38;100327.69;;;11.46;63.44
67740;BME280;54536;50.090;14.420;2023-04-10T00:26:04;100316.66;;;11.52;63.17
67740;BME280;54536;50.090;14.420;2023-04-10T00:28:30;100313.53;;;11.47;63.13
67740;BME280;54536;50.090;14.420;2023-04-10T00:30:56;100322.16;;;11.49;62.89
67740;BME280;54536;50.090;14.420;2023-04-10T00:33:22;100316.19;;;11.58;62.55
67740;BME280;54536;50.090;14.420;2023-04-10T00:35:48;100317.59;;;11.73;62.12
67740;BME280;54536;50.090;14.420;2023-04-10T00:38:14;100316.06;;;11.60;62.62
67740;BME280;54536;50.090;14.420;2023-04-10T00:40:41;100315.47;;;11.56;62.38
67740;BME280;54536;50.090;14.420;2023-04-10T00:43:07;100319.19;;;11.65;62.30
67740;BME280;54536;50.090;14.420;2023-04-10T00:45:33;100311.13;;;11.66;62.49
67740;BME280;54536;50.090;14.420;2023-04-10T00:48:00;100314.50;;;11.68;61.81
67740;BME280;54536;50.090;14.420;2023-04-10T00:50:26;100309.94;;;11.82;62.39
67740;BME280;54536;50.090;14.420;2023-04-10T00:52:52;100303.13;;;11.68;61.39
67740;BME280;54536;50.090;14.420;2023-04-10T00:55:18;100304.59;;;11.61;61.88
67740;BME280;54536;50.090;14.420;2023-04-10T00:57:46;100298.56;;;11.47;62.78
67740;BME280;54536;50.090;14.420;2023-04-10T01:00:14;100302.16;;;11.46;62.51
67740;BME280;54536;50.090;14.420;2023-04-10T01:02:41;100306.09;;;11.41;62.09
67740;BME280;54536;50.090;14.420;2023-04-10T01:05:08;100289.94;;;11.57;61.70
67740;BME280;54536;50.090;14.420;2023-04-10T01:10:37;100294.53;;;11.55;62.64
67740;BME280;54536;50.090;14.420;2023-04-10T01:13:21;100295.94;;;11.59;61.97
67740;BME280;54536;50.090;14.420;2023-04-10T01:16:17;100295.84;;;11.49;62.91
67740;BME280;54536;50.090;14.420;2023-04-10T01:18:53;100286.94;;;11.28;62.46
67740;BME280;54536;50.090;14.420;2023-04-10T01:21:23;100301.81;;;11.40;62.08
67740;BME280;54536;50.090;14.420;2023-04-10T01:29:25;100297.72;;;11.24;62.79
67740;BME280;54536;50.090;14.420;2023-04-10T01:32:08;100297.97;;;11.33;62.30
67740;BME280;54536;50.090;14.420;2023-04-10T01:34:48;100297.97;;;11.33;61.83
67740;BME280;54536;50.090;14.420;2023-04-10T01:37:23;100301.78;;;11.17;62.08
67740;BME280;54536;50.090;14.420;2023-04-10T01:40:00;100296.75;;;11.14;62.27
67740;BME280;54536;50.090;14.420;2023-04-10T01:42:31;100291.75;;;11.22;62.29
67740;BME280;54536;50.090;14.420;2023-04-10T01:45:00;100298.69;;;11.23;61.98
67740;BME280;54536;50.090;14.420;2023-04-10T01:47:26;100295.69;;;11.17;62.06
67740;BME280;54536;50.090;14.420;2023-04-10T01:49:56;100292.94;;;11.30;61.48
67740;BME280;54536;50.090;14.420;2023-04-10T01:52:24;100300.38;;;11.36;61.18
67740;BME280;54536;50.090;14.420;2023-04-10T01:54:53;100295.00;;;11.26;61.14
67740;BME280;54536;50.090;14.420;2023-04-10T01:57:20;100298.81;;;11.22;61.82
67740;BME280;54536;50.090;14.420;2023-04-10T01:59:48;100294.16;;;11.25;61.40
67740;BME280;54536;50.090;14.420;2023-04-10T02:02:15;100289.81;;;11.13;61.61
67740;BME280;54536;50.090;14.420;2023-04-10T02:04:41;100293.31;;;11.25;62.08
67740;BME280;54536;50.090;14.420;2023-04-10T02:07:23;100286.94;;;11.28;61.46
67740;BME280;54536;50.090;14.420;2023-04-10T02:10:10;100299.63;;;11.11;62.33
67740;BME280;54536;50.090;14.420;2023-04-10T02:12:43;100293.31;;;11.25;62.40
67740;BME280;54536;50.090;14.420;2023-04-10T02:15:11;100301.69;;;11.30;62.17
67740;BME280;54536;50.090;14.420;2023-04-10T02:17:39;100303.97;;;11.35;61.38
67740;BME280;54536;50.090;14.420;2023-04-10T02:20:07;100303.59;;;11.17;62.22
67740;BME280;54536;50.090;14.420;2023-04-10T02:22:35;100301.91;;;11.16;62.12
67740;BME280;54536;50.090;14.420;2023-04-10T02:25:03;100297.97;;;11.33;62.14
67740;BME280;54536;50.090;14.420;2023-04-10T02:27:32;100306.63;;;11.35;62.81
67740;BME280;54536;50.090;14.420;2023-04-10T02:30:00;100298.69;;;11.23;63.68
67740;BME280;54536;50.090;14.420;2023-04-10T02:32:28;100301.09;;;11.15;63.78
67740;BME280;54536;50.090;14.420;2023-04-10T02:34:55;100305.16;;;11.19;63.40
67740;BME280;54536;50.090;14.420;2023-04-10T02:37:22;100301.88;;;11.05;63.49
67740;BME280;54536;50.090;14.420;2023-04-10T02:39:48;100305.47;;;11.15;63.59
67740;BME280;54536;50.090;14.420;2023-04-10T02:42:14;100301.91;;;11.16;63.49
67740;BME280;54536;50.090;14.420;2023-04-10T02:44:41;100304.31;;;11.19;63.59
67740;BME280;54536;50.090;14.420;2023-04-10T02:47:07;100302.50;;;11.08;63.42
67740;BME280;54536;50.090;14.420;2023-04-10T02:49:34;100301.19;;;11.02;64.10
67740;BME280;54536;50.090;14.420;2023-04-10T02:52:00;100300.00;;;11.18;63.24
67740;BME280;54536;50.090;14.420;2023-04-10T02:54:26;100294.63;;;11.31;63.01
67740;BME280;54536;50.090;14.420;2023-04-10T02:56:52;100293.78;;;11.19;63.08
67740;BME280;54536;50.090;14.420;2023-04-10T02:59:19;100304.91;;;11.22;62.89
67740;BME280;54536;50.090;14.420;2023-04-10T03:01:45;100303.22;;;11.10;63.41
67740;BME280;54536;50.090;14.420;2023-04-10T03:04:12;100301.91;;;11.16;63.55
67740;BME280;54536;50.090;14.420;2023-04-10T03:06:38;100305.16;;;11.19;63.76
67740;BME280;54536;50.090;14.420;2023-04-10T03:09:04;100297.84;;;11.23;63.47
67740;BME280;54536;50.090;14.420;2023-04-10T03:11:31;100309.91;;;11.14;63.49
67740;BME280;54536;50.090;14.420;2023-04-10T03:13:57;100305.34;;;11.05;63.85
67740;BME280;54536;50.090;14.420;2023-04-10T03:16:23;100308.84;;;11.06;63.93
67740;BME280;54536;50.090;14.420;2023-04-10T03:18:49;100309.63;;;10.95;64.42
67740;BME280;54536;50.090;14.420;2023-04-10T03:21:15;100307.53;;;11.11;63.66
67740;BME280;54536;50.090;14.420;2023-04-10T03:23:41;100301.09;;;11.15;63.31
67740;BME280;54536;50.090;14.420;2023-04-10T03:26:08;100295.69;;;11.06;63.90
67740;BME280;54536;50.090;14.420;2023-04-10T03:28:34;100298.56;;;11.14;62.89
67740;BME280;54536;50.090;14.420;2023-04-10T03:31:02;100295.56;;;11.07;63.69
67740;BME280;54536;50.090;14.420;2023-04-10T03:33:29;100298.09;;;11.20;62.68
67740;BME280;54536;50.090;14.420;2023-04-10T03:35:55;100298.81;;;11.22;62.72
67740;BME280;54536;50.090;14.420;2023-04-10T03:38:22;100305.84;;;11.21;63.34
67740;BME280;54536;50.090;14.420;2023-04-10T03:40:48;100306.63;;;11.35;62.02
67740;BME280;54536;50.090;14.420;2023-04-10T03:43:14;100297.16;;;11.32;62.00
67740;BME280;54536;50.090;14.420;2023-04-10T03:45:40;100305.75;;;11.23;62.54
67740;BME280;54536;50.090;14.420;2023-04-10T03:48:07;100301.81;;;11.29;62.46
67740;BME280;54536;50.090;14.420;2023-04-10T03:50:33;100310.19;;;11.22;62.69
67740;BME280;54536;50.090;14.420;2023-04-10T03:52:59;100304.09;;;11.22;62.59
67740;BME280;54536;50.090;14.420;2023-04-10T03:55:26;100308.88;;;11.39;61.99
67740;BME280;54536;50.090;14.420;2023-04-10T03:57:53;100308.50;;;11.33;62.63
67740;BME280;54536;50.090;14.420;2023-04-10T04:00:20;100312.91;;;11.21;61.98
67740;BME280;54536;50.090;14.420;2023-04-10T04:02:47;100309.69;;;11.17;62.70
67740;BME280;54536;50.090;14.420;2023-04-10T04:05:15;100310.41;;;11.19;62.59
67740;BME280;54536;50.090;14.420;2023-04-10T04:07:41;100309.84;;;11.38;61.55
67740;BME280;54536;50.090;14.420;2023-04-10T04:10:07;100311.38;;;11.30;61.65
67740;BME280;54536;50.090;14.420;2023-04-10T04:12:34;100309.59;;;11.30;61.54
67740;BME280;54536;50.090;14.420;2023-04-10T04:15:00;100304.88;;;11.11;61.97
67740;BME280;54536;50.090;14.420;2023-04-10T04:17:26;100308.72;;;11.07;62.42
67740;BME280;54536;50.090;14.420;2023-04-10T04:19:52;100311.56;;;11.04;62.72
67740;BME280;54536;50.090;14.420;2023-04-10T04:22:19;100318.53;;;11.16;62.37
67740;BME280;54536;50.090;14.420;2023-04-10T04:24:45;100326.22;;;11.19;61.89
67740;BME280;54536;50.090;14.420;2023-04-10T04:27:11;100316.66;;;11.18;61.81
67740;BME280;54536;50.090;14.420;2023-04-10T04:29:37;100321.25;;;10.92;62.29
67740;BME280;54536;50.090;14.420;2023-04-10T04:32:04;100318.00;;;10.89;62.13
67740;BME280;54536;50.090;14.420;2023-04-10T04:34:30;100328.50;;;10.77;62.95
67740;BME280;54536;50.090;14.420;2023-04-10T04:36:56;100328.66;;;10.87;62.59
67740;BME280;54536;50.090;14.420;2023-04-10T04:39:22;100330.13;;;11.02;61.52
67740;BME280;54536;50.090;14.420;2023-04-10T04:41:48;100332.16;;;10.99;61.98
67740;BME280;54536;50.090;14.420;2023-04-10T04:44:14;100339.91;;;10.89;61.72
67740;BME280;54536;50.090;14.420;2023-04-10T04:46:40;100339.53;;;10.83;61.49
67740;BME280;54536;50.090;14.420;2023-04-10T04:49:06;100347.09;;;10.98;61.58
67740;BME280;54536;50.090;14.420;2023-04-10T04:51:32;100341.38;;;11.05;61.27
67740;BME280;54536;50.090;14.420;2023-04-10T04:54:00;100344.94;;;10.92;61.34
67740;BME280;54536;50.090;14.420;2023-04-10T04:56:26;100342.25;;;10.81;61.54
67740;BME280;54536;50.090;14.420;2023-04-10T04:58:52;100352.94;;;10.91;61.14
67740;BME280;54536;50.090;14.420;2023-04-10T05:01:19;100346.47;;;10.95;60.46
67740;BME280;54536;50.090;14.420;2023-04-10T05:03:44;100347.91;;;10.88;60.77
67740;BME280;54536;50.090;14.420;2023-04-10T05:06:11;100349.31;;;10.81;61.15
67740;BME280;54536;50.090;14.420;2023-04-10T05:08:37;100347.59;;;11.04;60.93
67740;BME280;54536;50.090;14.420;2023-04-10T05:11:03;100342.94;;;11.07;60.39
67740;BME280;54536;50.090;14.420;2023-04-10T05:13:29;100348.19;;;11.07;59.68
67740;BME280;54536;50.090;14.420;2023-04-10T05:15:55;100359.56;;;11.08;60.45
67740;BME280;54536;50.090;14.420;2023-04-10T05:18:21;100354.16;;;10.98;60.02
67740;BME280;54536;50.090;14.420;2023-04-10T05:20:49;100356.78;;;10.98;60.69
67740;BME280;54536;50.090;14.420;2023-04-10T05:23:15;100349.84;;;11.08;60.15
67740;BME280;54536;50.090;14.420;2023-04-10T05:25:41;100358.25;;;11.02;60.04
67740;BME280;54536;50.090;14.420;2023-04-10T05:28:07;100353.06;;;10.89;60.62
67740;BME280;54536;50.090;14.420;2023-04-10T05:30:34;100358.34;;;11.00;59.62
67740;BME280;54536;50.090;14.420;2023-04-10T05:33:00;100361.72;;;11.14;59.82
67740;BME280;54536;50.090;14.420;2023-04-10T05:35:26;100367.44;;;11.08;60.08
67740;BME280;54536;50.090;14.420;2023-04-10T05:37:52;100363.16;;;11.07;59.47
67740;BME280;54536;50.090;14.420;2023-04-10T05:40:19;100368.66;;;11.04;59.82
67740;BME280;54536;50.090;14.420;2023-04-10T05:42:45;100364.38;;;11.14;59.36
67740;BME280;54536;50.090;14.420;2023-04-10T05:45:11;100374.72;;;11.28;58.44
67740;BME280;54536;50.090;14.420;2023-04-10T05:47:39;100379.72;;;11.31;59.13
67740;BME280;54536;50.090;14.420;2023-04-10T05:50:05;100376.69;;;11.24;58.91
67740;BME280;54536;50.090;14.420;2023-04-10T05:52:32;100383.16;;;11.20;59.60
67740;BME280;54536;50.090;14.420;2023-04-10T05:55:10;100379.00;;;11.29;58.90
67740;BME280;54536;50.090;14.420;2023-04-10T05:57:35;100378.88;;;11.31;59.14
67740;BME280;54536;50.090;14.420;2023-04-10T06:00:02;100378.78;;;11.32;58.64
67740;BME280;54536;50.090;14.420;2023-04-10T06:02:28;100374.22;;;11.34;58.97
67740;BME280;54536;50.090;14.420;2023-04-10T06:04:54;100373.22;;;11.24;59.16
67740;BME280;54536;50.090;14.420;2023-04-10T06:07:20;100370.88;;;11.43;58.88
67740;BME280;54536;50.090;14.420;2023-04-10T06:09:46;100371.09;;;11.29;59.04
67740;BME280;54536;50.090;14.420;2023-04-10T06:12:12;100372.78;;;11.30;59.07
67740;BME280;54536;50.090;14.420;2023-04-10T06:14:38;100375.41;;;11.30;59.70
67740;BME280;54536;50.090;14.420;2023-04-10T06:17:04;100377.59;;;11.47;59.04
67740;BME280;54536;50.090;14.420;2023-04-10T06:19:31;100377.25;;;11.52;58.24
67740;BME280;54536;50.090;14.420;2023-04-10T06:21:57;100382.16;;;11.57;58.59
67740;BME280;54536;50.090;14.420;2023-04-10T06:24:23;100379.63;;;11.66;58.02
67740;BME280;54536;50.090;14.420;2023-04-10T06:26:49;100386.25;;;11.72;58.02
67740;BME280;54536;50.090;14.420;2023-04-10T06:29:15;100377.97;;;11.77;57.14
67740;BME280;54536;50.090;14.420;2023-04-10T06:31:41;100382.03;;;11.69;57.32
67740;BME280;54536;50.090;14.420;2023-04-10T06:34:07;100384.53;;;11.60;57.62
67740;BME280;54536;50.090;14.420;2023-04-10T06:36:33;100386.84;;;11.64;57.13
67740;BME280;54536;50.090;14.420;2023-04-10T06:38:59;100383.97;;;11.79;56.87
67740;BME280;54536;50.090;14.420;2023-04-10T06:41:35;100383.47;;;11.73;56.74
67740;BME280;54536;50.090;14.420;2023-04-10T06:44:02;100382.69;;;11.84;56.47
67740;BME280;54536;50.090;14.420;2023-04-10T06:46:27;100387.34;;;11.81;57.28
67740;BME280;54536;50.090;14.420;2023-04-10T06:48:54;100382.06;;;12.03;56.93
67740;BME280;54536;50.090;14.420;2023-04-10T06:51:20;100377.41;;;11.84;56.73
67740;BME280;54536;50.090;14.420;2023-04-10T06:53:46;100384.00;;;12.01;55.39
67740;BME280;54536;50.090;14.420;2023-04-10T06:56:12;100381.72;;;12.08;55.60
67740;BME280;54536;50.090;14.420;2023-04-10T06:58:39;100378.47;;;12.04;56.01
67740;BME280;54536;50.090;14.420;2023-04-10T07:01:06;100394.75;;;12.21;55.75
67740;BME280;54536;50.090;14.420;2023-04-10T07:03:32;100383.88;;;12.14;55.12
67740;BME280;54536;50.090;14.420;2023-04-10T07:05:59;100389.84;;;12.16;55.34
67740;BME280;54536;50.090;14.420;2023-04-10T07:08:32;100383.97;;;12.24;55.22
67740;BME280;54536;50.090;14.420;2023-04-10T07:10:58;100380.47;;;12.34;55.18
67740;BME280;54536;50.090;14.420;2023-04-10T07:13:25;100382.97;;;12.36;54.61
67740;BME280;54536;50.090;14.420;2023-04-10T07:15:51;100378.81;;;12.33;54.96
67740;BME280;54536;50.090;14.420;2023-04-10T07:18:17;100384.16;;;12.43;54.25
67740;BME280;54536;50.090;14.420;2023-04-10T07:20:43;100378.41;;;12.49;54.31
67740;BME280;54536;50.090;14.420;2023-04-10T07:23:10;100382.72;;;12.50;54.22
67740;BME280;54536;50.090;14.420;2023-04-10T07:25:36;100373.91;;;12.61;54.23
67740;BME280;54536;50.090;14.420;2023-04-10T07:28:03;100371.25;;;12.72;53.91
67740;BME280;54536;50.090;14.420;2023-04-10T07:30:35;100375.81;;;12.70;53.48
67740;BME280;54536;50.090;14.420;2023-04-10T07:33:02;100376.13;;;12.77;53.57
67740;BME280;54536;50.090;14.420;2023-04-10T07:35:29;100372.25;;;12.92;52.99
67740;BME280;54536;50.090;14.420;2023-04-10T07:37:55;100373.84;;;12.83;52.44
67740;BME280;54536;50.090;14.420;2023-04-10T07:40:22;100360.88;;;12.80;52.95
67740;BME280;54536;50.090;14.420;2023-04-10T07:42:53;100360.97;;;12.90;52.48
67740;BME280;54536;50.090;14.420;2023-04-10T07:45:20;100366.81;;;12.94;52.22
67740;BME280;54536;50.090;14.420;2023-04-10T07:47:46;100358.28;;;13.22;50.90
67740;BME280;54536;50.090;14.420;2023-04-10T07:50:12;100351.53;;;13.29;51.22
67740;BME280;54536;50.090;14.420;2023-04-10T07:52:38;100350.50;;;13.42;50.00
67740;BME280;54536;50.090;14.420;2023-04-10T07:55:04;100352.09;;;13.54;49.90
67740;BME280;54536;50.090;14.420;2023-04-10T07:57:30;100353.34;;;13.29;50.09
67740;BME280;54536;50.090;14.420;2023-04-10T07:59:56;100349.00;;;13.49;50.31
67740;BME280;54536;50.090;14.420;2023-04-10T08:02:23;100342.25;;;13.66;50.68
67740;BME280;54536;50.090;14.420;2023-04-10T08:04:48;100344.72;;;13.88;50.72
67740;BME280;54536;50.090;14.420;2023-04-10T08:07:15;100339.69;;;13.85;48.23
67740;BME280;54536;50.090;14.420;2023-04-10T08:09:41;100350.00;;;13.88;47.64
67740;BME280;54536;50.090;14.420;2023-04-10T08:12:07;100346.75;;;13.75;46.49
67740;BME280;54536;50.090;14.420;2023-04-10T08:14:33;100348.75;;;13.92;47.65
67740;BME280;54536;50.090;14.420;2023-04-10T08:17:00;100347.25;;;14.09;47.02
67740;BME280;54536;50.090;14.420;2023-04-10T08:19:26;100344.91;;;14.06;46.42
67740;BME280;54536;50.090;14.420;2023-04-10T08:21:52;100346.22;;;13.81;47.07
67740;BME280;54536;50.090;14.420;2023-04-10T08:24:18;100352.19;;;13.83;46.88
67740;BME280;54536;50.090;14.420;2023-04-10T08:26:46;100343.50;;;14.02;45.98
67740;BME280;54536;50.090;14.420;2023-04-10T08:29:13;100342.81;;;14.00;45.84
67740;BME280;54536;50.090;14.420;2023-04-10T08:31:39;100345.22;;;14.32;45.28
67740;BME280;54536;50.090;14.420;2023-04-10T08:34:05;100340.34;;;14.18;45.43
67740;BME280;54536;50.090;14.420;2023-04-10T08:36:31;100338.97;;;14.33;45.57
67740;BME280;54536;50.090;14.420;2023-04-10T08:38:57;100331.31;;;14.30;44.97
67740;BME280;54536;50.090;14.420;2023-04-10T08:41:24;100328.78;;;14.19;45.67
67740;BME280;54536;50.090;14.420;2023-04-10T08:43:50;100329.63;;;14.19;45.73
67740;BME280;54536;50.090;14.420;2023-04-10T08:46:17;100334.91;;;14.19;45.34
67740;BME280;54536;50.090;14.420;2023-04-10T08:49:02;100325.31;;;14.28;45.24
67740;BME280;54536;50.090;14.420;2023-04-10T08:51:42;100326.31;;;14.46;44.87
67740;BME280;54536;50.090;14.420;2023-04-10T08:54:17;100324.97;;;14.71;43.42
67740;BME280;54536;50.090;14.420;2023-04-10T08:56:49;100326.88;;;14.98;43.29
67740;BME280;54536;50.090;14.420;2023-04-10T08:59:16;100327.44;;;14.92;43.23
67740;BME280;54536;50.090;14.420;2023-04-10T09:01:44;100321.88;;;14.76;43.40
67740;BME280;54536;50.090;14.420;2023-04-10T09:04:12;100326.47;;;14.74;43.40
67740;BME280;54536;50.090;14.420;2023-04-10T09:06:39;100316.16;;;14.71;42.42
67740;BME280;54536;50.090;14.420;2023-04-10T09:09:05;100318.09;;;15.08;41.97
67740;BME280;54536;50.090;14.420;2023-04-10T09:11:59;100319.00;;;15.26;41.00
67740;BME280;54536;50.090;14.420;2023-04-10T09:14:29;100314.69;;;15.25;40.86
67740;BME280;54536;50.090;14.420;2023-04-10T09:17:21;100312.34;;;15.22;41.32
67740;BME280;54536;50.090;14.420;2023-04-10T09:19:50;100310.78;;;15.19;41.31
67740;BME280;54536;50.090;14.420;2023-04-10T09:22:28;100313.09;;;15.42;40.54
67740;BME280;54536;50.090;14.420;2023-04-10T09:24:54;100310.38;;;15.61;40.84
67740;BME280;54536;50.090;14.420;2023-04-10T09:27:31;100314.00;;;15.70;40.35
67740;BME280;54536;50.090;14.420;2023-04-10T09:29:58;100301.03;;;15.67;40.65
67740;BME280;54536;50.090;14.420;2023-04-10T09:32:43;100305.22;;;15.97;40.22
67740;BME280;54536;50.090;14.420;2023-04-10T09:35:14;100313.19;;;16.15;39.58
67740;BME280;54536;50.090;14.420;2023-04-10T09:37:43;100312.16;;;16.26;38.17
67740;BME280;54536;50.090;14.420;2023-04-10T09:40:24;100301.31;;;16.19;38.11
67740;BME280;54536;50.090;14.420;2023-04-10T09:42:55;100296.72;;;15.94;38.52
67740;BME280;54536;50.090;14.420;2023-04-10T09:45:21;100297.53;;;15.94;38.82
67740;BME280;54536;50.090;14.420;2023-04-10T09:48:08;100291.72;;;16.08;39.21
67740;BME280;54536;50.090;14.420;2023-04-10T09:50:37;100291.59;;;16.10;39.65
67740;BME280;54536;50.090;14.420;2023-04-10T09:53:09;100285.06;;;16.04;39.56
67740;BME280;54536;50.090;14.420;2023-04-10T09:55:35;100278.50;;;16.26;38.98
67740;BME280;54536;50.090;14.420;2023-04-10T09:58:03;100285.81;;;16.14;39.18
67740;BME280;54536;50.090;14.420;2023-04-10T10:00:37;100270.56;;;15.99;39.50
67740;BME280;54536;50.090;14.420;2023-04-10T10:03:07;100261.78;;;15.98;39.58
67740;BME280;54536;50.090;14.420;2023-04-10T10:05:46;100261.41;;;16.11;39.04
67740;BME280;54536;50.090;14.420;2023-04-10T10:08:13;100260.72;;;16.27;39.07
67740;BME280;54536;50.090;14.420;2023-04-10T10:10:52;100260.34;;;16.39;38.93
67740;BME280;54536;50.090;14.420;2023-04-10T10:18:43;100250.19;;;16.17;38.81
67740;BME280;54536;50.090;14.420;2023-04-10T10:21:16;100243.66;;;16.11;39.04
67740;BME280;54536;50.090;14.420;2023-04-10T10:23:45;100254.28;;;16.11;39.10
67740;BME280;54536;50.090;14.420;2023-04-10T10:26:13;100242.63;;;16.22;38.77
67740;BME280;54536;50.090;14.420;2023-04-10T10:28:40;100241.53;;;16.15;39.46
67740;BME280;54536;50.090;14.420;2023-04-10T10:31:07;100239.44;;;16.19;38.79
67740;BME280;54536;50.090;14.420;2023-04-10T10:33:37;100242.38;;;16.33;37.94
67740;BME280;54536;50.090;14.420;2023-04-10T10:36:06;100233.78;;;16.57;38.85
67740;BME280;54536;50.090;14.420;2023-04-10T10:38:33;100227.19;;;16.61;38.35
67740;BME280;54536;50.090;14.420;2023-04-10T10:44:12;100227.81;;;16.37;38.50
67740;BME280;54536;50.090;14.420;2023-04-10T10:46:50;100215.44;;;16.46;38.38
67740;BME280;54536;50.090;14.420;2023-04-10T10:49:17;100218.78;;;16.48;38.33
67740;BME280;54536;50.090;14.420;2023-04-10T10:51:50;100200.50;;;16.45;39.82
67740;BME280;54536;50.090;14.420;2023-04-10T10:56:54;100203.03;;;16.73;37.88
67740;BME280;54536;50.090;14.420;2023-04-10T11:02:18;100198.78;;;17.48;36.24
67740;BME280;54536;50.090;14.420;2023-04-10T11:04:47;100195.06;;;17.92;34.94
67740;BME280;54536;50.090;14.420;2023-04-10T11:07:15;100185.31;;;18.25;34.17
67740;BME280;54536;50.090;14.420;2023-04-10T11:09:49;100183.94;;;18.54;33.25
67740;BME280;54536;50.090;14.420;2023-04-10T11:12:20;100176.63;;;18.80;33.05
67740;BME280;54536;50.090;14.420;2023-04-10T11:15:02;100169.84;;;19.17;33.58
67740;BME280;54536;50.090;14.420;2023-04-10T11:17:48;100167.66;;;19.12;32.97
67740;BME280;54536;50.090;14.420;2023-04-10T11:20:19;100163.28;;;19.67;31.94
67740;BME280;54536;50.090;14.420;2023-04-10T11:23:06;100163.88;;;19.77;31.31
67740;BME280;54536;50.090;14.420;2023-04-10T11:26:05;100152.59;;;19.90;30.93
67740;BME280;54536;50.090;14.420;2023-04-10T11:31:19;100136.13;;;19.63;32.03
67740;BME280;54536;50.090;14.420;2023-04-10T11:33:49;100146.59;;;19.34;32.22
67740;BME280;54536;50.090;14.420;2023-04-10T11:36:17;100139.16;;;19.52;32.33
67740;BME280;54536;50.090;14.420;2023-04-10T11:39:02;100138.66;;;19.80;31.59
67740;BME280;54536;50.090;14.420;2023-04-10T11:41:37;100129.19;;;19.77;30.70
67740;BME280;54536;50.090;14.420;2023-04-10T11:44:06;100140.16;;;19.82;31.10
67740;BME280;54536;50.090;14.420;2023-04-10T11:46:44;100134.69;;;19.45;30.43
67740;BME280;54536;50.090;14.420;2023-04-10T11:49:24;100134.66;;;19.22;31.27
67740;BME280;54536;50.090;14.420;2023-04-10T11:51:52;100127.38;;;19.07;31.57
67740;BME280;54536;50.090;14.420;2023-04-10T11:54:21;100126.47;;;18.84;31.31
67740;BME280;54536;50.090;14.420;2023-04-10T11:57:05;100122.84;;;18.60;31.71
67740;BME280;54536;50.090;14.420;2023-04-10T11:59:34;100119.22;;;18.37;32.83
67740;BME280;54536;50.090;14.420;2023-04-10T12:02:09;100117.69;;;18.75;32.08
67740;BME280;54536;50.090;14.420;2023-04-10T12:04:36;100110.34;;;18.69;31.93
67740;BME280;54536;50.090;14.420;2023-04-10T12:07:03;100114.22;;;19.06;31.14
67740;BME280;54536;50.090;14.420;2023-04-10T12:09:29;100103.00;;;19.18;30.64
67740;BME280;54536;50.090;14.420;2023-04-10T12:12:06;100101.13;;;19.27;30.04
67740;BME280;54536;50.090;14.420;2023-04-10T12:14:38;100090.84;;;19.47;30.29
67740;BME280;54536;50.090;14.420;2023-04-10T12:17:08;100087.28;;;19.78;29.95
67740;BME280;54536;50.090;14.420;2023-04-10T12:19:37;100081.22;;;20.60;29.47
67740;BME280;54536;50.090;14.420;2023-04-10T12:22:04;100079.34;;;21.41;27.25
67740;BME280;54536;50.090;14.420;2023-04-10T12:24:49;100080.94;;;22.21;25.75
67740;BME280;54536;50.090;14.420;2023-04-10T12:27:17;100072.22;;;23.43;24.12
67740;BME280;54536;50.090;14.420;2023-04-10T12:29:48;100072.13;;;23.78;22.96
67740;BME280;54536;50.090;14.420;2023-04-10T12:32:15;100060.31;;;24.19;23.75
67740;BME280;54536;50.090;14.420;2023-04-10T12:34:48;100061.47;;;24.76;21.98
67740;BME280;54536;50.090;14.420;2023-04-10T12:37:15;100053.63;;;24.61;21.86
67740;BME280;54536;50.090;14.420;2023-04-10T12:39:41;100055.91;;;24.64;22.01
67740;BME280;54536;50.090;14.420;2023-04-10T12:42:11;100046.19;;;24.63;23.38
67740;BME280;54536;50.090;14.420;2023-04-10T12:44:53;100037.91;;;25.73;20.38
67740;BME280;54536;50.090;14.420;2023-04-10T12:47:22;100044.28;;;25.54;20.42
67740;BME280;54536;50.090;14.420;2023-04-10T12:50:09;100038.41;;;26.75;19.95
67740;BME280;54536;50.090;14.420;2023-04-10T12:52:38;100042.13;;;26.37;19.82
67740;BME280;54536;50.090;14.420;2023-04-10T12:55:10;100030.66;;;24.65;21.19
67740;BME280;54536;50.090;14.420;2023-04-10T12:57:39;100027.06;;;23.80;22.27
67740;BME280;54536;50.090;14.420;2023-04-10T13:00:06;100022.25;;;23.35;23.47
67740;BME280;54536;50.090;14.420;2023-04-10T13:02:40;100006.41;;;23.74;21.92
67740;BME280;54536;50.090;14.420;2023-04-10T13:05:08;99999.88;;;25.38;20.39
67740;BME280;54536;50.090;14.420;2023-04-10T13:07:34;99983.78;;;25.81;19.67
67740;BME280;54536;50.090;14.420;2023-04-10T13:10:04;99994.88;;;26.72;18.74
67740;BME280;54536;50.090;14.420;2023-04-10T13:12:31;99989.63;;;24.83;19.98
67740;BME280;54536;50.090;14.420;2023-04-10T13:14:59;99987.59;;;23.80;21.41